Flight Track Log - Related Links

Times and Time Zones

All times are in EDT time to prevent confusion due to time zone crossing. See the JIA2302 flight status page for this flight to view local times or setup timezone preferences in your user account.


Time Position Orientation Groundspeed Altitude Reporting Facility
EDT Latitude Longitude Course Direction KTS MPH feet Rate Location/Type
Fri 06:04:56 AM 39.1833 -76.7167 90° East 149 171 1,700  Level Potomac TRACON
Fri 06:05:50 AM 39.1500 -76.7500 218° Southwest 197 227 3,100 1,842 Climbing Potomac TRACON
Fri 06:06:50 AM 39.1000 -76.7000 142° Southeast 228 262 5,200 1,650 Climbing Potomac TRACON
Fri 06:07:00 AM 39.1500 -76.3030 270° West  Level FlightAware Approximate
Fri 06:07:50 AM 39.1167 -76.6000 78° East 268 308 6,400  Level Potomac TRACON
Fri 06:08:00 AM 39.1604 -76.4812 277° West  Level FlightAware Approximate
Fri 06:08:50 AM 39.1167 -76.5000 90° East 286 329 8,100  Level Potomac TRACON
Fri 06:09:00 AM 39.1651 -76.6404 102° East  Level FlightAware Approximate
Fri 06:09:50 AM 39.1667 -76.4167 52° Northeast 295 339 9,000  Level Potomac TRACON
Fri 06:10:00 AM 39.1500 -76.4635 90° East  Level FlightAware Approximate
Fri 06:10:50 AM 39.2167 -76.3333 52° Northeast 297 342 9,000  Level Potomac TRACON
Fri 06:11:38 AM 39.2500 -76.2667 57° Northeast 289 333 9,000  Level Potomac TRACON
Fri 06:12:44 AM 39.3167 -76.1833 44° Northeast 293 337 9,000 -35 Level Potomac TRACON
Fri 06:14:28 AM 39.4000 -76.0333 54° Northeast 298 343 8,900 -439 Descending Philadelphia TRACON
Fri 06:15:28 AM 39.4167 -75.9333 78° East 290 334 7,800 -991 Descending Philadelphia TRACON
Fri 06:16:23 AM 39.4333 -75.8333 78° East 291 335 7,000 -417 Descending Philadelphia TRACON
Fri 06:17:23 AM 39.4500 -75.7500 75° East 285 328 7,000  Level Philadelphia TRACON
Fri 06:18:23 AM 39.4500 -75.6500 90° East 282 325 7,000  Level Philadelphia TRACON
Fri 06:19:11 AM 39.4667 -75.5667 75° East 285 328 7,000  Level Philadelphia TRACON
Fri 06:20:16 AM 39.4833 -75.4500 79° East 283 326 7,000 -275 Level Philadelphia TRACON
Fri 06:21:22 AM 39.5333 -75.3500 57° Northeast 289 333 6,400 -472 Descending Philadelphia TRACON
Fri 06:22:23 AM 39.5833 -75.2833 46° Northeast 281 323 6,000 -198 Descending Philadelphia TRACON
Fri 06:23:23 AM 39.6333 -75.2000 52° Northeast 291 335 6,000  Level Philadelphia TRACON
Fri 06:24:23 AM 39.6667 -75.1333 57° Northeast 232 267 6,000  Level Philadelphia TRACON
Fri 06:25:23 AM 39.7167 -75.0667 46° Northeast 243 280 6,000 -550 Level Philadelphia TRACON
Fri 06:26:23 AM 39.7667 -75.0000 46° Northeast 248 285 4,900 -1,053 Descending Philadelphia TRACON
Fri 06:27:17 AM 39.8000 -74.9333 57° Northeast 238 274 4,000 -474 Descending Philadelphia TRACON
Fri 06:28:17 AM 39.8333 -74.8833 49° Northeast 194 223 4,000 -286 Level Philadelphia TRACON
Fri 06:29:23 AM 39.9000 -74.8833 360° North 191 220 3,400 -500 Descending Philadelphia TRACON
Fri 06:30:17 AM 39.9333 -74.9333 311° West 176 203 3,000 -211 Descending Philadelphia TRACON
Fri 06:31:17 AM 39.9333 -74.9833 270° West 183 211 3,000 -150 Level Philadelphia TRACON
Fri 06:32:17 AM 39.9167 -75.0500 252° West 184 212 2,700 -300 Descending Philadelphia TRACON

Login

Don't have an account? Register now (free) for customized features, flight alerts, and more!